sensor_id;sensor_type;location;lat;lon;timestamp;temperature;humidity
46181;DHT22;58963;50.438;30.594;2022-11-02T00:01:20;6.70;99.90
46181;DHT22;58963;50.438;30.594;2022-11-02T00:06:42;6.70;99.90
46181;DHT22;58963;50.438;30.594;2022-11-02T00:12:02;6.70;99.90
46181;DHT22;58963;50.438;30.594;2022-11-02T00:17:22;6.60;99.90
46181;DHT22;58963;50.438;30.594;2022-11-02T00:22:42;6.60;99.90
46181;DHT22;58963;50.438;30.594;2022-11-02T00:28:03;6.60;99.90
46181;DHT22;58963;50.438;30.594;2022-11-02T00:33:23;6.60;99.90
46181;DHT22;58963;50.438;30.594;2022-11-02T00:38:42;6.60;99.90
46181;DHT22;58963;50.438;30.594;2022-11-02T00:44:01;6.50;99.90
46181;DHT22;58963;50.438;30.594;2022-11-02T00:49:20;6.50;99.90
46181;DHT22;58963;50.438;30.594;2022-11-02T00:54:39;6.40;99.90
46181;DHT22;58963;50.438;30.594;2022-11-02T00:59:58;6.40;99.90
46181;DHT22;58963;50.438;30.594;2022-11-02T01:05:18;6.30;99.90
46181;DHT22;58963;50.438;30.594;2022-11-02T01:10:37;6.20;99.90
46181;DHT22;58963;50.438;30.594;2022-11-02T01:15:57;6.10;99.90
46181;DHT22;58963;50.438;30.594;2022-11-02T01:21:16;6.00;99.90
46181;DHT22;58963;50.438;30.594;2022-11-02T01:26:37;6.00;99.90
46181;DHT22;58963;50.438;30.594;2022-11-02T01:31:56;5.90;99.90
46181;DHT22;58963;50.438;30.594;2022-11-02T01:37:15;5.90;99.90
46181;DHT22;58963;50.438;30.594;2022-11-02T01:42:34;5.90;99.90
46181;DHT22;58963;50.438;30.594;2022-11-02T01:47:53;5.80;99.90
46181;DHT22;58963;50.438;30.594;2022-11-02T01:53:14;5.70;99.90
46181;DHT22;58963;50.438;30.594;2022-11-02T01:58:33;5.30;99.90
46181;DHT22;58963;50.438;30.594;2022-11-02T02:03:53;5.20;99.90
46181;DHT22;58963;50.438;30.594;2022-11-02T02:09:14;5.10;99.90
46181;DHT22;58963;50.438;30.594;2022-11-02T02:14:34;5.00;99.90
46181;DHT22;58963;50.438;30.594;2022-11-02T02:43:20;4.90;99.90
46181;DHT22;58963;50.438;30.594;2022-11-02T02:48:45;5.00;99.90
46181;DHT22;58963;50.438;30.594;2022-11-02T02:54:13;5.00;99.90
46181;DHT22;58963;50.438;30.594;2022-11-02T02:59:38;4.90;99.90
46181;DHT22;58963;50.438;30.594;2022-11-02T03:04:58;4.70;99.90
46181;DHT22;58963;50.438;30.594;2022-11-02T03:10:33;4.50;99.90
46181;DHT22;58963;50.438;30.594;2022-11-02T03:21:41;4.30;99.90
46181;DHT22;58963;50.438;30.594;2022-11-02T03:32:40;4.20;99.90
46181;DHT22;58963;50.438;30.594;2022-11-02T03:38:14;4.20;99.90
46181;DHT22;58963;50.438;30.594;2022-11-02T03:43:35;4.30;99.90
46181;DHT22;58963;50.438;30.594;2022-11-02T03:48:56;4.20;99.90
46181;DHT22;58963;50.438;30.594;2022-11-02T03:54:34;4.10;99.90
46181;DHT22;58963;50.438;30.594;2022-11-02T04:00:17;3.90;99.90
46181;DHT22;58963;50.438;30.594;2022-11-02T04:05:37;4.00;99.90
46181;DHT22;58963;50.438;30.594;2022-11-02T04:10:56;4.10;99.90
46181;DHT22;58963;50.438;30.594;2022-11-02T04:16:34;4.00;99.90
46181;DHT22;58963;50.438;30.594;2022-11-02T04:21:55;4.20;99.90
46181;DHT22;58963;50.438;30.594;2022-11-02T04:27:34;4.30;99.90
46181;DHT22;58963;50.438;30.594;2022-11-02T04:32:53;4.50;99.90
46181;DHT22;58963;50.438;30.594;2022-11-02T04:38:32;4.50;99.90
46181;DHT22;58963;50.438;30.594;2022-11-02T04:44:01;4.60;99.90
46181;DHT22;58963;50.438;30.594;2022-11-02T04:49:20;4.70;99.90
46181;DHT22;58963;50.438;30.594;2022-11-02T04:54:40;4.90;99.90
46181;DHT22;58963;50.438;30.594;2022-11-02T05:00:00;5.10;99.90
46181;DHT22;58963;50.438;30.594;2022-11-02T05:05:19;5.20;99.90
46181;DHT22;58963;50.438;30.594;2022-11-02T05:10:38;5.20;99.90
46181;DHT22;58963;50.438;30.594;2022-11-02T05:15:58;5.30;99.90
46181;DHT22;58963;50.438;30.594;2022-11-02T05:21:17;5.40;99.90
46181;DHT22;58963;50.438;30.594;2022-11-02T05:26:36;5.40;99.90
46181;DHT22;58963;50.438;30.594;2022-11-02T05:31:56;5.40;99.90
46181;DHT22;58963;50.438;30.594;2022-11-02T05:37:15;5.30;99.90
46181;DHT22;58963;50.438;30.594;2022-11-02T05:42:35;5.40;99.90
46181;DHT22;58963;50.438;30.594;2022-11-02T05:47:54;5.30;99.90
46181;DHT22;58963;50.438;30.594;2022-11-02T05:53:13;5.50;99.90
46181;DHT22;58963;50.438;30.594;2022-11-02T05:58:33;6.90;99.90
46181;DHT22;58963;50.438;30.594;2022-11-02T06:03:52;8.60;99.90
46181;DHT22;58963;50.438;30.594;2022-11-02T06:09:11;9.90;99.90
46181;DHT22;58963;50.438;30.594;2022-11-02T06:14:30;10.60;99.90
46181;DHT22;58963;50.438;30.594;2022-11-02T06:19:49;11.10;99.90
46181;DHT22;58963;50.438;30.594;2022-11-02T06:25:09;11.70;98.90
46181;DHT22;58963;50.438;30.594;2022-11-02T06:30:30;12.10;93.40
46181;DHT22;58963;50.438;30.594;2022-11-02T06:35:51;12.80;88.10
46181;DHT22;58963;50.438;30.594;2022-11-02T06:41:10;13.30;74.60
46181;DHT22;58963;50.438;30.594;2022-11-02T06:46:30;13.60;68.80
46181;DHT22;58963;50.438;30.594;2022-11-02T06:51:52;14.10;71.00
46181;DHT22;58963;50.438;30.594;2022-11-02T06:57:11;14.40;68.70
46181;DHT22;58963;50.438;30.594;2022-11-02T07:02:31;13.30;73.20
46181;DHT22;58963;50.438;30.594;2022-11-02T07:07:52;14.30;69.10
46181;DHT22;58963;50.438;30.594;2022-11-02T07:13:11;14.90;65.80
46181;DHT22;58963;50.438;30.594;2022-11-02T07:18:31;15.60;64.30
46181;DHT22;58963;50.438;30.594;2022-11-02T10:53:12;18.10;51.00
46181;DHT22;58963;50.438;30.594;2022-11-02T10:58:32;18.10;51.90
46181;DHT22;58963;50.438;30.594;2022-11-02T11:04:02;18.00;52.20
46181;DHT22;58963;50.438;30.594;2022-11-02T11:09:37;17.80;51.90
46181;DHT22;58963;50.438;30.594;2022-11-02T11:14:58;17.40;52.50
46181;DHT22;58963;50.438;30.594;2022-11-02T11:20:34;17.40;53.00
46181;DHT22;58963;50.438;30.594;2022-11-02T11:26:03;17.50;52.10
46181;DHT22;58963;50.438;30.594;2022-11-02T11:31:23;17.90;51.80
46181;DHT22;58963;50.438;30.594;2022-11-02T11:36:43;17.60;52.60
46181;DHT22;58963;50.438;30.594;2022-11-02T11:42:04;17.40;53.30
46181;DHT22;58963;50.438;30.594;2022-11-02T11:47:35;17.60;53.00
46181;DHT22;58963;50.438;30.594;2022-11-02T11:53:15;17.20;52.90
46181;DHT22;58963;50.438;30.594;2022-11-02T11:58:36;16.30;56.70
46181;DHT22;58963;50.438;30.594;2022-11-02T12:03:57;16.30;56.80
46181;DHT22;58963;50.438;30.594;2022-11-02T12:09:37;16.50;56.40
46181;DHT22;58963;50.438;30.594;2022-11-02T12:15:03;15.60;58.80
46181;DHT22;58963;50.438;30.594;2022-11-02T12:20:50;15.00;62.20
46181;DHT22;58963;50.438;30.594;2022-11-02T12:26:30;14.40;65.90
46181;DHT22;58963;50.438;30.594;2022-11-02T12:54:53;13.80;73.40
46181;DHT22;58963;50.438;30.594;2022-11-02T13:00:19;13.80;75.10
46181;DHT22;58963;50.438;30.594;2022-11-02T13:05:50;13.60;76.70
46181;DHT22;58963;50.438;30.594;2022-11-02T13:11:29;13.50;77.60
46181;DHT22;58963;50.438;30.594;2022-11-02T13:16:56;13.30;79.00
46181;DHT22;58963;50.438;30.594;2022-11-02T13:22:29;13.10;81.50
46181;DHT22;58963;50.438;30.594;2022-11-02T13:27:55;13.00;85.80
46181;DHT22;58963;50.438;30.594;2022-11-02T13:33:33;12.90;85.80
46181;DHT22;58963;50.438;30.594;2022-11-02T13:39:02;12.70;88.60
46181;DHT22;58963;50.438;30.594;2022-11-02T13:44:31;12.50;90.90
46181;DHT22;58963;50.438;30.594;2022-11-02T13:49:55;12.30;92.50
46181;DHT22;58963;50.438;30.594;2022-11-02T13:55:21;12.10;94.30
46181;DHT22;58963;50.438;30.594;2022-11-02T14:00:45;11.90;95.90
46181;DHT22;58963;50.438;30.594;2022-11-02T14:06:10;11.50;97.60
46181;DHT22;58963;50.438;30.594;2022-11-02T14:17:09;11.40;99.90
46181;DHT22;58963;50.438;30.594;2022-11-02T14:22:30;11.40;99.90
46181;DHT22;58963;50.438;30.594;2022-11-02T14:27:53;11.30;99.90
46181;DHT22;58963;50.438;30.594;2022-11-02T14:39:35;11.30;99.90
46181;DHT22;58963;50.438;30.594;2022-11-02T14:45:21;11.10;99.90
46181;DHT22;58963;50.438;30.594;2022-11-02T14:50:57;11.00;99.90
46181;DHT22;58963;50.438;30.594;2022-11-02T14:56:19;10.80;99.90
46181;DHT22;58963;50.438;30.594;2022-11-02T15:01:56;10.50;99.90
46181;DHT22;58963;50.438;30.594;2022-11-02T15:12:48;10.30;99.90
46181;DHT22;58963;50.438;30.594;2022-11-02T15:18:31;10.30;99.90
46181;DHT22;58963;50.438;30.594;2022-11-02T15:24:10;10.30;99.90
46181;DHT22;58963;50.438;30.594;2022-11-02T15:29:36;10.30;99.90
46181;DHT22;58963;50.438;30.594;2022-11-02T15:34:59;10.20;99.90
46181;DHT22;58963;50.438;30.594;2022-11-02T15:40:27;10.20;99.90
46181;DHT22;58963;50.438;30.594;2022-11-02T15:56:59;10.00;99.90
46181;DHT22;58963;50.438;30.594;2022-11-02T16:02:30;9.90;99.90
46181;DHT22;58963;50.438;30.594;2022-11-02T19:50:49;10.00;99.90
46181;DHT22;58963;50.438;30.594;2022-11-02T19:56:09;10.00;99.90
46181;DHT22;58963;50.438;30.594;2022-11-02T20:01:31;10.00;99.90
46181;DHT22;58963;50.438;30.594;2022-11-02T20:06:51;9.90;99.90
46181;DHT22;58963;50.438;30.594;2022-11-02T20:12:10;9.90;99.90
46181;DHT22;58963;50.438;30.594;2022-11-02T20:17:29;9.80;99.90
46181;DHT22;58963;50.438;30.594;2022-11-02T20:22:49;9.60;99.90
46181;DHT22;58963;50.438;30.594;2022-11-02T20:28:09;9.50;99.90
46181;DHT22;58963;50.438;30.594;2022-11-02T20:33:28;9.40;99.90
46181;DHT22;58963;50.438;30.594;2022-11-02T20:38:47;9.30;99.90
46181;DHT22;58963;50.438;30.594;2022-11-02T20:44:07;9.20;99.90
46181;DHT22;58963;50.438;30.594;2022-11-02T20:49:26;9.20;99.90
46181;DHT22;58963;50.438;30.594;2022-11-02T20:54:49;9.20;99.90
46181;DHT22;58963;50.438;30.594;2022-11-02T21:00:10;9.20;99.90
46181;DHT22;58963;50.438;30.594;2022-11-02T21:05:29;9.20;99.90
46181;DHT22;58963;50.438;30.594;2022-11-02T21:11:02;9.20;99.90
46181;DHT22;58963;50.438;30.594;2022-11-02T21:16:21;9.20;99.90
46181;DHT22;58963;50.438;30.594;2022-11-02T21:21:41;9.20;99.90
46181;DHT22;58963;50.438;30.594;2022-11-02T21:27:00;9.10;99.90
46181;DHT22;58963;50.438;30.594;2022-11-02T21:32:19;9.20;99.90
46181;DHT22;58963;50.438;30.594;2022-11-02T21:37:38;9.20;99.90
46181;DHT22;58963;50.438;30.594;2022-11-02T21:42:58;9.10;99.90
46181;DHT22;58963;50.438;30.594;2022-11-02T21:48:18;9.10;99.90
46181;DHT22;58963;50.438;30.594;2022-11-02T21:53:40;9.10;99.90
46181;DHT22;58963;50.438;30.594;2022-11-02T21:58:59;9.20;99.90
46181;DHT22;58963;50.438;30.594;2022-11-02T22:04:21;9.20;99.90
46181;DHT22;58963;50.438;30.594;2022-11-02T22:09:46;9.10;99.90
46181;DHT22;58963;50.438;30.594;2022-11-02T22:15:06;9.10;99.90
46181;DHT22;58963;50.438;30.594;2022-11-02T22:20:25;9.10;99.90
46181;DHT22;58963;50.438;30.594;2022-11-02T22:25:48;9.10;99.90
46181;DHT22;58963;50.438;30.594;2022-11-02T22:31:20;9.10;99.90
46181;DHT22;58963;50.438;30.594;2022-11-02T22:36:42;9.10;99.90
46181;DHT22;58963;50.438;30.594;2022-11-02T22:42:01;9.00;99.90
46181;DHT22;58963;50.438;30.594;2022-11-02T22:47:30;9.00;99.90
46181;DHT22;58963;50.438;30.594;2022-11-02T22:53:07;9.00;99.90
46181;DHT22;58963;50.438;30.594;2022-11-02T22:58:28;9.00;99.90
46181;DHT22;58963;50.438;30.594;2022-11-02T23:03:48;9.00;99.90
46181;DHT22;58963;50.438;30.594;2022-11-02T23:09:09;9.00;99.90
46181;DHT22;58963;50.438;30.594;2022-11-02T23:14:29;8.90;99.90
46181;DHT22;58963;50.438;30.594;2022-11-02T23:19:48;8.90;99.90
46181;DHT22;58963;50.438;30.594;2022-11-02T23:25:08;8.80;99.90
46181;DHT22;58963;50.438;30.594;2022-11-02T23:30:33;8.80;99.90
46181;DHT22;58963;50.438;30.594;2022-11-02T23:36:12;8.80;99.90
46181;DHT22;58963;50.438;30.594;2022-11-02T23:41:34;8.80;99.90
46181;DHT22;58963;50.438;30.594;2022-11-02T23:46:55;8.80;99.90
46181;DHT22;58963;50.438;30.594;2022-11-02T23:52:14;8.80;99.90
46181;DHT22;58963;50.438;30.594;2022-11-02T23:57:52;8.80;99.90
